Time,TemperatureF,DewpointF,PressureIn,WindDirection,WindDirectionDegrees,WindSpeedMPH,WindSpeedGustMPH,Humidity,HourlyPrecipIn,Conditions,Clouds,dailyrainin,SolarRadiationWatts/m^2,SoftwareType,DateUTC
2013-02-05 00:03:00,38.0,29.0,-100.00,ESE,120,2.0,5.0,71,0.00,,,0.00,0.000000,,2013-02-05 05:03:00,
2013-02-05 00:32:00,37.0,28.0,-100.00,SE,144,3.0,6.0,71,0.00,,,0.00,0.000000,,2013-02-05 05:32:00,
2013-02-05 00:42:00,37.0,28.0,-100.00,SE,144,3.0,6.0,71,0.00,,,0.00,0.000000,,2013-02-05 05:42:00,
2013-02-05 00:52:00,37.0,28.0,-100.00,SE,144,3.0,6.0,71,0.00,,,0.00,0.000000,,2013-02-05 05:52:00,
2013-02-05 01:02:00,37.0,28.0,-100.00,SE,144,3.0,6.0,71,0.00,,,0.00,0.000000,,2013-02-05 06:02:00,
2013-02-05 01:32:00,37.0,30.0,-100.00,SSE,154,2.0,4.0,76,0.00,,,0.00,0.000000,,2013-02-05 06:32:00,
2013-02-05 01:42:00,37.0,30.0,-100.00,SSE,154,2.0,4.0,76,0.00,,,0.00,0.000000,,2013-02-05 06:42:00,
2013-02-05 01:52:00,37.0,30.0,-100.00,SSE,154,2.0,4.0,76,0.00,,,0.00,0.000000,,2013-02-05 06:52:00,
2013-02-05 02:01:00,37.0,30.0,-100.00,SSE,154,2.0,4.0,76,0.00,,,0.00,0.000000,,2013-02-05 07:01:00,
2013-02-05 02:32:00,36.0,29.0,-100.00,SSE,155,2.0,4.0,76,0.00,,,0.00,0.000000,,2013-02-05 07:32:00,
2013-02-05 02:42:00,36.0,29.0,-100.00,SSE,155,2.0,4.0,76,0.00,,,0.00,0.000000,,2013-02-05 07:42:00,
2013-02-05 02:52:00,36.0,29.0,-100.00,SSE,155,2.0,4.0,76,0.00,,,0.00,0.000000,,2013-02-05 07:52:00,
2013-02-05 03:01:00,36.0,29.0,-100.00,SSE,155,2.0,4.0,76,0.00,,,0.00,0.000000,,2013-02-05 08:01:00,
2013-02-05 03:32:00,36.0,29.0,-100.00,SE,142,4.0,5.0,75,0.00,,,0.00,0.000000,,2013-02-05 08:32:00,
2013-02-05 03:42:00,36.0,29.0,-100.00,SE,142,4.0,5.0,75,0.00,,,0.00,0.000000,,2013-02-05 08:42:00,
2013-02-05 03:52:00,36.0,29.0,-100.00,SE,142,4.0,5.0,75,0.00,,,0.00,0.000000,,2013-02-05 08:52:00,
2013-02-05 04:02:00,36.0,29.0,-100.00,SE,142,4.0,5.0,75,0.00,,,0.00,0.000000,,2013-02-05 09:02:00,
2013-02-05 04:32:00,36.0,31.0,-100.00,ESE,110,1.0,4.0,82,0.00,,,0.00,0.000000,,2013-02-05 09:32:00,
2013-02-05 04:42:00,36.0,31.0,-100.00,ESE,110,1.0,4.0,82,0.00,,,0.00,0.000000,,2013-02-05 09:42:00,
2013-02-05 04:52:00,36.0,31.0,-100.00,ESE,110,1.0,4.0,82,0.00,,,0.00,0.000000,,2013-02-05 09:52:00,
2013-02-05 05:02:00,36.0,31.0,-100.00,ESE,110,1.0,4.0,82,0.00,,,0.00,0.000000,,2013-02-05 10:02:00,
2013-02-05 05:32:00,37.0,31.0,-100.00,NW,309,2.0,5.0,79,0.00,,,0.00,0.000000,,2013-02-05 10:32:00,
2013-02-05 05:42:00,37.0,31.0,-100.00,NW,309,2.0,5.0,79,0.00,,,0.00,0.000000,,2013-02-05 10:42:00,
2013-02-05 05:52:00,37.0,31.0,-100.00,NW,309,2.0,5.0,79,0.00,,,0.00,0.000000,,2013-02-05 10:52:00,
2013-02-05 06:01:00,37.0,31.0,-100.00,NW,309,2.0,5.0,79,0.00,,,0.00,0.000000,,2013-02-05 11:01:00,
2013-02-05 06:32:00,37.0,32.0,-100.00,ESE,110,3.0,5.0,81,0.00,,,0.00,0.000000,,2013-02-05 11:32:00,
2013-02-05 06:42:00,37.0,32.0,-100.00,ESE,110,3.0,5.0,81,0.00,,,0.00,0.000000,,2013-02-05 11:42:00,
2013-02-05 06:52:00,37.0,32.0,-100.00,ESE,110,3.0,5.0,81,0.00,,,0.00,0.000000,,2013-02-05 11:52:00,
2013-02-05 07:02:00,37.0,32.0,-100.00,ESE,110,3.0,5.0,81,0.00,,,0.00,0.000000,,2013-02-05 12:02:00,
2013-02-05 07:32:00,36.0,32.0,-100.00,SE,141,3.0,5.0,85,0.00,,,0.00,0.000000,,2013-02-05 12:32:00,
2013-02-05 07:42:00,36.0,32.0,-100.00,SE,141,3.0,5.0,85,0.00,,,0.00,0.000000,,2013-02-05 12:42:00,
2013-02-05 07:52:00,36.0,32.0,-100.00,SE,141,3.0,5.0,85,0.00,,,0.00,0.000000,,2013-02-05 12:52:00,
2013-02-05 08:02:00,36.0,32.0,-100.00,SE,141,3.0,5.0,85,0.00,,,0.00,0.000000,,2013-02-05 13:02:00,
2013-02-05 08:32:00,36.0,34.0,-100.00,SE,137,2.0,4.0,92,0.00,,,0.00,2.000000,,2013-02-05 13:32:00,
2013-02-05 08:42:00,36.0,34.0,-100.00,SE,137,2.0,4.0,92,0.00,,,0.00,2.000000,,2013-02-05 13:42:00,
2013-02-05 08:52:00,36.0,34.0,-100.00,SE,137,2.0,4.0,92,0.00,,,0.00,2.000000,,2013-02-05 13:52:00,
2013-02-05 09:01:00,36.0,34.0,-100.00,SE,137,2.0,4.0,92,0.00,,,0.00,2.000000,,2013-02-05 14:01:00,
2013-02-05 09:32:00,37.0,34.0,-100.00,SSE,148,3.0,4.0,90,0.00,,,0.00,16.000000,,2013-02-05 14:32:00,
2013-02-05 09:42:00,37.0,34.0,-100.00,SSE,148,3.0,4.0,90,0.00,,,0.00,16.000000,,2013-02-05 14:42:00,
2013-02-05 09:52:00,37.0,34.0,-100.00,SSE,148,3.0,4.0,90,0.00,,,0.00,16.000000,,2013-02-05 14:52:00,
2013-02-05 10:02:00,37.0,34.0,-100.00,SSE,148,3.0,4.0,90,0.00,,,0.00,16.000000,,2013-02-05 15:02:00,
2013-02-05 10:32:00,38.0,34.0,-100.00,SSE,156,1.0,4.0,87,0.00,,,0.00,47.000000,,2013-02-05 15:32:00,
2013-02-05 10:42:00,38.0,34.0,-100.00,SSE,156,1.0,4.0,87,0.00,,,0.00,47.000000,,2013-02-05 15:42:00,
2013-02-05 10:52:00,38.0,34.0,-100.00,SSE,156,1.0,4.0,87,0.00,,,0.00,47.000000,,2013-02-05 15:52:00,
2013-02-05 11:01:00,38.0,34.0,-100.00,SSE,156,1.0,4.0,87,0.00,,,0.00,47.000000,,2013-02-05 16:01:00,
2013-02-05 11:33:00,39.0,37.0,-100.00,South,182,1.0,5.0,91,0.00,,,-99.99,55.000000,,2013-02-05 16:33:00,
2013-02-05 11:42:00,39.0,37.0,-100.00,South,182,1.0,5.0,91,0.00,,,-99.99,55.000000,,2013-02-05 16:42:00,
2013-02-05 11:52:00,39.0,37.0,-100.00,South,182,1.0,5.0,91,0.00,,,-99.99,55.000000,,2013-02-05 16:52:00,
2013-02-05 12:01:00,39.0,37.0,-100.00,South,182,1.0,5.0,91,0.00,,,-99.99,55.000000,,2013-02-05 17:01:00,
2013-02-05 12:33:00,44.0,39.0,-100.00,SSE,158,4.0,5.0,82,0.00,,,-99.99,213.000000,,2013-02-05 17:33:00,
2013-02-05 12:42:00,44.0,39.0,-100.00,SSE,158,4.0,5.0,82,0.00,,,-99.99,213.000000,,2013-02-05 17:42:00,
2013-02-05 12:52:00,44.0,39.0,-100.00,SSE,158,4.0,5.0,82,0.00,,,-99.99,213.000000,,2013-02-05 17:52:00,
2013-02-05 13:02:00,44.0,39.0,-100.00,SSE,158,4.0,5.0,82,0.00,,,-99.99,213.000000,,2013-02-05 18:02:00,
2013-02-05 13:32:00,49.0,41.0,-100.00,North,9,3.0,6.0,73,0.00,,,0.00,434.000000,,2013-02-05 18:32:00,
2013-02-05 13:42:00,49.0,41.0,-100.00,North,9,3.0,6.0,73,0.00,,,0.00,434.000000,,2013-02-05 18:42:00,
2013-02-05 13:52:00,49.0,41.0,-100.00,North,9,3.0,6.0,73,0.00,,,0.00,434.000000,,2013-02-05 18:52:00,
2013-02-05 14:02:00,49.0,41.0,-100.00,North,9,3.0,6.0,73,0.00,,,0.00,434.000000,,2013-02-05 19:02:00,
2013-02-05 14:32:00,51.0,41.0,-100.00,NE,36,3.0,9.0,68,0.00,,,0.00,554.000000,,2013-02-05 19:32:00,
2013-02-05 14:42:00,51.0,41.0,-100.00,NE,36,3.0,9.0,68,0.00,,,0.00,554.000000,,2013-02-05 19:42:00,
2013-02-05 14:52:00,51.0,41.0,-100.00,NE,36,3.0,9.0,68,0.00,,,0.00,554.000000,,2013-02-05 19:52:00,
2013-02-05 15:02:00,51.0,41.0,-100.00,NE,36,3.0,9.0,68,0.00,,,0.00,554.000000,,2013-02-05 20:02:00,
2013-02-05 15:32:00,56.0,41.0,-100.00,SSE,148,3.0,9.0,58,0.00,,,-99.99,653.000000,,2013-02-05 20:32:00,
2013-02-05 15:42:00,56.0,41.0,-100.00,SSE,148,3.0,9.0,58,0.00,,,-99.99,653.000000,,2013-02-05 20:42:00,
2013-02-05 15:52:00,56.0,41.0,-100.00,SSE,148,3.0,9.0,58,0.00,,,-99.99,653.000000,,2013-02-05 20:52:00,
2013-02-05 16:02:00,56.0,41.0,-100.00,SSE,148,3.0,9.0,58,0.00,,,-99.99,653.000000,,2013-02-05 21:02:00,
2013-02-05 16:32:00,58.0,40.0,-100.00,SSW,202,3.0,10.0,51,0.00,,,0.00,475.000000,,2013-02-05 21:32:00,
2013-02-05 16:42:00,58.0,40.0,-100.00,SSW,202,3.0,10.0,51,0.00,,,0.00,475.000000,,2013-02-05 21:42:00,
2013-02-05 16:52:00,58.0,40.0,-100.00,SSW,202,3.0,10.0,51,0.00,,,0.00,475.000000,,2013-02-05 21:52:00,
2013-02-05 17:02:00,58.0,40.0,-100.00,SSW,202,3.0,10.0,51,0.00,,,0.00,475.000000,,2013-02-05 22:02:00,
2013-02-05 17:32:00,58.0,37.0,-100.00,NW,325,4.0,7.0,45,0.00,,,0.00,310.000000,,2013-02-05 22:32:00,
2013-02-05 17:42:00,58.0,37.0,-100.00,NW,325,4.0,7.0,45,0.00,,,0.00,310.000000,,2013-02-05 22:42:00,
2013-02-05 17:52:00,58.0,37.0,-100.00,NW,325,4.0,7.0,45,0.00,,,0.00,310.000000,,2013-02-05 22:52:00,
2013-02-05 18:02:00,58.0,37.0,-100.00,NW,325,4.0,7.0,45,0.00,,,0.00,310.000000,,2013-02-05 23:02:00,
2013-02-05 18:33:00,54.0,31.0,-100.00,West,274,4.0,9.0,41,0.00,,,0.00,96.000000,,2013-02-05 23:33:00,
2013-02-05 18:42:00,54.0,31.0,-100.00,West,274,4.0,9.0,41,0.00,,,0.00,96.000000,,2013-02-05 23:42:00,
2013-02-05 18:53:00,54.0,31.0,-100.00,West,274,4.0,9.0,41,0.00,,,0.00,96.000000,,2013-02-05 23:53:00,
2013-02-05 19:02:00,54.0,31.0,-100.00,West,274,4.0,9.0,41,0.00,,,0.00,96.000000,,2013-02-06 00:02:00,
2013-02-05 19:32:00,48.0,34.0,-100.00,SSE,160,3.0,5.0,58,0.00,,,0.00,1.000000,,2013-02-06 00:32:00,
2013-02-05 19:42:00,48.0,34.0,-100.00,SSE,160,3.0,5.0,58,0.00,,,0.00,1.000000,,2013-02-06 00:42:00,
2013-02-05 19:52:00,48.0,34.0,-100.00,SSE,160,3.0,5.0,58,0.00,,,0.00,1.000000,,2013-02-06 00:52:00,
2013-02-05 20:02:00,48.0,34.0,-100.00,SSE,160,3.0,5.0,58,0.00,,,0.00,1.000000,,2013-02-06 01:02:00,
2013-02-05 20:33:00,49.0,39.0,-100.00,SW,218,3.0,6.0,67,0.00,,,0.00,0.000000,,2013-02-06 01:33:00,
2013-02-05 20:42:00,49.0,39.0,-100.00,SW,218,3.0,6.0,67,0.00,,,0.00,0.000000,,2013-02-06 01:42:00,
2013-02-05 20:53:00,49.0,39.0,-100.00,SW,218,3.0,6.0,67,0.00,,,0.00,0.000000,,2013-02-06 01:53:00,
2013-02-05 21:02:00,49.0,39.0,-100.00,SW,218,3.0,6.0,67,0.00,,,0.00,0.000000,,2013-02-06 02:02:00,
2013-02-05 21:32:00,46.0,40.0,-100.00,North,5,2.0,7.0,80,0.00,,,0.00,0.000000,,2013-02-06 02:32:00,
2013-02-05 21:42:00,46.0,40.0,-100.00,North,5,2.0,7.0,80,0.00,,,0.00,0.000000,,2013-02-06 02:42:00,
2013-02-05 21:53:00,46.0,40.0,-100.00,North,5,2.0,7.0,80,0.00,,,0.00,0.000000,,2013-02-06 02:53:00,
2013-02-05 22:03:00,46.0,40.0,-100.00,North,5,2.0,7.0,80,0.00,,,0.00,0.000000,,2013-02-06 03:03:00,
2013-02-05 22:33:00,42.0,40.0,-100.00,SSE,151,1.0,3.0,93,0.00,,,0.00,0.000000,,2013-02-06 03:33:00,
2013-02-05 22:42:00,42.0,40.0,-100.00,SSE,151,1.0,3.0,93,0.00,,,0.00,0.000000,,2013-02-06 03:42:00,
2013-02-05 22:53:00,42.0,40.0,-100.00,SSE,151,1.0,3.0,93,0.00,,,0.00,0.000000,,2013-02-06 03:53:00,
2013-02-05 23:02:00,42.0,40.0,-100.00,SSE,151,1.0,3.0,93,0.00,,,0.00,0.000000,,2013-02-06 04:02:00,
2013-02-05 23:32:00,40.0,38.0,-100.00,SSE,157,3.0,4.0,92,0.00,,,0.00,0.000000,,2013-02-06 04:32:00,
2013-02-05 23:42:00,40.0,38.0,-100.00,SSE,157,3.0,4.0,92,0.00,,,0.00,0.000000,,2013-02-06 04:42:00,
2013-02-05 23:52:00,40.0,38.0,-100.00,SSE,157,3.0,4.0,92,0.00,,,0.00,0.000000,,2013-02-06 04:52:00,